Terminal Aerodrome Forecast
Issued by NWS

Home | Current Version | Previous Version | Text Only | Print | Product List | Glossary On
Versions: 1 2 3 4 5 6 7 8 9 10 11 12 13 14 15 16 17 18 19 20 21 22 23 24 25 26 27 28 29
000
FTUS45 KFGZ 270322 AAS
TAFPGA
TAF AMD
KPGA 270322Z 2703/2724 22010G16KT P6SM SKC
     FM270600 VRB06KT P6SM SKC WS020/25035KT
     FM271400 29008KT P6SM FEW110 FEW250=

USA.gov is the U.S. government's official web portal to all federal, state and local government web resources and services.